• Join FlightAware (Why Join?)
  • Login
  • US Flag 
10:27PM EDT


 

Airport Tracker/Info


-or-


 

Live Flight TrackerFlight Track Log ✈ ASQ4096 ✈ 23-Jun-2013 ✈ KDTW - KORD

Flight Track Log - Related Links

Times and Time Zones

All times are in EDT time to prevent confusion due to time zone crossing. See the ASQ4096 flight status page for this flight to view local times or setup timezone preferences in your user account.

Time Position Orientation Groundspeed Altitude Reporting Facility
EDT Latitude Longitude Course Direction KTS MPH feet Rate Location/Type
09:37PM 42.2058 -83.3556 276° West 161 185 1,200  Level Cleveland Center
09:38PM 42.1464 -83.3950 206° Southwest 214 246 4,500 2,400 Climbing Cleveland Center
09:39PM 42.1342 -83.4700 258° West 259 298 6,600 2,460 Climbing Cleveland Center
09:40PM 42.2333 -83.7282 270° West  Level FlightAware Approximate
09:40PM 42.1525 -83.5661 284° West 266 306 9,300  Level Cleveland Center
09:41PM 42.2334 -83.8242 270° West  Level FlightAware Approximate
09:41PM 42.1611 -83.6422 279° West 314 361 10,200  Level Cleveland Center
09:42PM 42.2362 -83.9201 276° West  Level FlightAware Approximate
09:42PM 42.1867 -83.7694 285° West 338 389 11,100  Level Cleveland Center
09:43PM 42.2100 -83.9053 283° West 359 413 12,500 1,380 Climbing Cleveland Center
09:44PM 42.2350 -84.0469 283° West 375 432 13,900 1,320 Climbing Cleveland Center
09:45PM 42.2597 -84.1886 283° West 390 449 15,200 1,320 Climbing Cleveland Center
09:46PM 42.2614 -84.3347 271° West 395 455 16,600 1,260 Climbing Cleveland Center
09:47PM 42.2567 -84.4775 267° West 390 449 17,800 1,020 Climbing Cleveland Center
09:48PM 42.2536 -84.6261 268° West 385 443 18,700 840 Climbing Cleveland Center
09:49PM 42.2531 -84.8167 270° West 402 463 19,900 480 Climbing Chicago Center
09:50PM 42.2494 -84.9736 268° West 416 479 20,000  Climbing Chicago Center
09:51PM 42.2461 -85.1669 269° West 427 491 20,000  Level Chicago Center
09:52PM 42.2425 -85.3297 268° West 433 498 20,000 -720 Level Chicago Center
09:53PM 42.2394 -85.4814 268° West 413 475 18,600 -1,800 Descending Chicago Center
09:54PM 42.2256 -85.6297 263° West 400 460 16,400 -2,220 Descending Chicago Center
09:55PM 42.2019 -85.7714 257° West 386 444 14,100 -2,160 Descending Chicago Center
09:56PM 42.1783 -85.9097 257° West 379 436 12,000 -1,500 Descending Chicago Center
09:57PM 42.1536 -86.0575 257° West 378 435 11,100 -540 Descending Chicago Center
09:58PM 42.1444 -86.1942 265° West 375 432 11,000 -360 Descending Chicago Center
09:59PM 42.1461 -86.3319 271° West 369 425 10,400 -540 Descending Chicago Center
10:00PM 42.1475 -86.4672 271° West 365 420 10,000 -240 Descending Chicago Center
10:01PM 42.1483 -86.6217 270° West 345 397 10,000 -540 Level Chicago Center
10:03PM 42.1517 -86.7272 272° West 277 319 8,900 -960 Descending Chicago Center
10:04PM 42.1531 -86.8303 271° West 276 318 8,100 -420 Descending Chicago Center
10:05PM 42.1533 -86.9311 270° West 273 314 8,100  Level Chicago Center
10:06PM 42.1606 -87.0328 276° West 274 315 8,100 -60 Level Chicago Center
10:07PM 42.1664 -87.1319 275° West 269 310 8,000 -60 Descending Chicago Center
10:08PM 42.1731 -87.2353 275° West 278 320 8,000  Level Chicago Center
10:09PM 42.1825 -87.3553 276° West 273 314 8,000 -420 Level Chicago Center
10:10PM 42.1828 -87.4578 270° West 275 316 7,200 -1,200 Descending Chicago Center
10:11PM 42.1769 -87.5553 265° West 266 306 5,600 -1,500 Descending Chicago Center
10:12PM 42.1719 -87.6458 266° West 249 287 4,200 -840 Descending Chicago Center
10:13PM 42.1458 -87.7275 247° West 244 281 4,000 -480 Descending Chicago Center
10:14PM 42.1042 -87.7783 222° Southwest 214 246 3,300 -900 Descending Chicago Center
10:15PM 42.0597 -87.8311 221° Southwest 193 222 2,200 -1,140 Descending Chicago Center